Time;durP1;ratioP1;P1;durP2;ratioP2;P2;SDS_P1;SDS_P2;PMS_P1;PMS_P2;Temp;Humidity;BMP_temperature;BMP_pressure;BME280_temperature;BME280_humidity;BME280_pressure;Samples;Min_cycle;Max_cycle;Signal;HPM_P1;HPM_P2
2021/10/05 00:00:10;;;;;;;0.50;0.40;;;12.10;99.90;;;;;;4998487;28;20881;-83
2021/10/05 00:02:39;;;;;;;0.50;0.40;;;12.10;99.90;;;;;;4998318;28;20199;-82
2021/10/05 00:05:06;;;;;;;0.50;0.40;;;12.10;99.90;;;;;;4998187;28;20224;-83
2021/10/05 00:07:33;;;;;;;0.50;0.40;;;12.10;99.90;;;;;;4998154;28;20448;-82
2021/10/05 00:10:00;;;;;;;0.50;0.40;;;12.10;99.90;;;;;;4997813;28;20244;-83
2021/10/05 00:12:26;;;;;;;0.50;0.40;;;12.00;99.90;;;;;;4998553;28;20605;-83
2021/10/05 00:14:53;;;;;;;0.50;0.40;;;12.00;99.90;;;;;;4998770;28;20440;-84
2021/10/05 00:17:20;;;;;;;0.50;0.40;;;12.00;99.90;;;;;;5007620;28;20818;-83
2021/10/05 00:19:49;;;;;;;0.50;0.40;;;12.10;99.90;;;;;;5016026;28;20219;-83
2021/10/05 00:22:16;;;;;;;0.50;0.40;;;12.00;99.90;;;;;;5019386;28;20200;-83
2021/10/05 00:24:43;;;;;;;0.50;0.40;;;12.00;99.90;;;;;;5018761;28;20198;-83
2021/10/05 00:27:10;;;;;;;0.52;0.45;;;12.00;99.90;;;;;;5018674;28;20202;-82
2021/10/05 00:29:37;;;;;;;0.50;0.40;;;12.00;99.90;;;;;;5018197;28;20223;-82
2021/10/05 00:32:04;;;;;;;0.50;0.40;;;12.00;99.90;;;;;;5017840;28;20203;-83
2021/10/05 00:34:31;;;;;;;0.50;0.40;;;12.00;99.90;;;;;;5017765;28;20230;-82
2021/10/05 00:36:59;;;;;;;0.50;0.40;;;12.00;99.90;;;;;;5017269;28;20437;-83
2021/10/05 00:39:26;;;;;;;0.50;0.40;;;12.00;99.90;;;;;;5017101;28;20218;-83
2021/10/05 00:41:53;;;;;;;0.50;0.40;;;12.00;99.90;;;;;;5016906;28;20188;-80
2021/10/05 00:44:29;;;;;;;0.50;0.40;;;12.00;99.90;;;;;;5017043;28;20466;-83
2021/10/05 00:46:59;;;;;;;0.50;0.40;;;12.00;99.90;;;;;;5016576;28;20187;-81
2021/10/05 00:49:26;;;;;;;0.50;0.40;;;12.00;99.90;;;;;;5016685;28;20244;-83
2021/10/05 00:51:53;;;;;;;0.50;0.40;;;11.90;99.90;;;;;;5016317;28;20840;-83
2021/10/05 00:54:21;;;;;;;0.50;0.40;;;11.90;99.90;;;;;;5017136;28;20203;-83
2021/10/05 00:56:48;;;;;;;0.50;0.40;;;11.90;99.90;;;;;;5016583;28;20204;-83
2021/10/05 00:59:15;;;;;;;0.50;0.40;;;11.90;99.90;;;;;;5015307;28;20482;-82
2021/10/05 01:01:41;;;;;;;0.50;0.40;;;11.90;99.90;;;;;;4996778;28;20210;-83
2021/10/05 01:04:08;;;;;;;0.50;0.40;;;11.80;99.90;;;;;;4996931;28;20239;-82
2021/10/05 01:06:35;;;;;;;0.50;0.40;;;11.80;99.90;;;;;;4998125;28;20531;-81
2021/10/05 01:09:01;;;;;;;0.50;0.40;;;11.80;99.90;;;;;;4997876;28;20206;-83
2021/10/05 01:11:29;;;;;;;0.50;0.40;;;11.80;99.90;;;;;;4997520;28;20180;-83
2021/10/05 01:13:56;;;;;;;1.58;0.80;;;11.80;99.90;;;;;;4997805;28;20191;-81
2021/10/05 01:16:23;;;;;;;0.50;0.40;;;11.80;99.90;;;;;;4997067;28;20216;-82
2021/10/05 01:18:49;;;;;;;0.65;0.60;;;11.80;99.90;;;;;;4997604;28;20267;-81
2021/10/05 01:21:17;;;;;;;0.50;0.40;;;11.70;99.90;;;;;;4997958;28;20557;-83
2021/10/05 01:23:46;;;;;;;0.50;0.40;;;11.60;99.90;;;;;;5000113;28;20200;-82
2021/10/05 01:26:13;;;;;;;0.55;0.47;;;11.70;99.90;;;;;;5005384;28;20226;-83
2021/10/05 01:28:40;;;;;;;0.50;0.40;;;11.70;99.90;;;;;;4997490;28;20202;-83
2021/10/05 01:31:07;;;;;;;0.50;0.40;;;11.70;99.90;;;;;;4996760;28;20544;-82
2021/10/05 01:33:34;;;;;;;0.50;0.40;;;11.70;99.90;;;;;;4997349;28;20273;-83
2021/10/05 01:36:00;;;;;;;0.50;0.40;;;11.70;99.90;;;;;;4997687;28;20198;-80
2021/10/05 01:38:28;;;;;;;0.50;0.40;;;11.70;99.90;;;;;;4996562;28;20218;-83
2021/10/05 01:40:55;;;;;;;0.50;0.40;;;11.80;99.90;;;;;;4997340;28;20213;-82
2021/10/05 01:43:22;;;;;;;0.50;0.40;;;11.80;99.90;;;;;;4996825;28;20207;-83
2021/10/05 01:45:49;;;;;;;0.50;0.40;;;11.70;99.90;;;;;;4996837;28;20205;-83
2021/10/05 01:48:17;;;;;;;0.50;0.40;;;11.70;99.90;;;;;;4997127;28;20276;-83
2021/10/05 01:50:44;;;;;;;0.50;0.50;;;11.70;99.90;;;;;;4996335;28;20242;-82
2021/10/05 01:53:10;;;;;;;0.50;0.40;;;11.70;99.90;;;;;;4997010;28;20207;-83
2021/10/05 01:55:38;;;;;;;0.50;0.40;;;11.70;99.90;;;;;;4996058;28;20587;-83
2021/10/05 01:58:05;;;;;;;0.50;0.40;;;11.70;99.90;;;;;;4996889;28;20217;-83
2021/10/05 02:00:32;;;;;;;0.50;0.40;;;11.70;99.90;;;;;;4995882;28;20219;-83
2021/10/05 02:02:59;;;;;;;0.50;0.40;;;11.60;99.90;;;;;;4995362;28;20274;-82
2021/10/05 02:05:25;;;;;;;0.50;0.40;;;11.60;99.90;;;;;;4996438;28;20199;-83
2021/10/05 02:07:52;;;;;;;0.50;0.40;;;11.60;99.90;;;;;;5005238;28;20191;-83
2021/10/05 02:10:19;;;;;;;0.50;0.40;;;11.60;99.90;;;;;;5015563;28;20365;-82
2021/10/05 02:12:47;;;;;;;0.50;0.40;;;11.60;99.90;;;;;;5015900;28;20204;-83
2021/10/05 02:15:14;;;;;;;0.50;0.50;;;11.50;99.90;;;;;;5016634;28;20228;-82
2021/10/05 02:17:40;;;;;;;0.50;0.40;;;11.60;99.90;;;;;;5016090;28;20202;-83
2021/10/05 02:20:08;;;;;;;0.50;0.40;;;11.50;99.90;;;;;;5015536;28;20718;-82
2021/10/05 02:22:36;;;;;;;0.50;0.40;;;11.60;99.90;;;;;;5017053;28;20195;-83
2021/10/05 02:25:03;;;;;;;1.63;0.65;;;11.50;99.90;;;;;;5016149;28;20198;-82
2021/10/05 02:27:29;;;;;;;0.50;0.40;;;11.50;99.90;;;;;;5016370;28;20672;-82
2021/10/05 02:29:57;;;;;;;0.50;0.40;;;11.60;99.90;;;;;;5016591;28;20219;-81
2021/10/05 02:32:24;;;;;;;0.70;0.70;;;11.60;99.90;;;;;;5015119;28;20203;-81
2021/10/05 02:34:51;;;;;;;0.50;0.40;;;11.50;99.90;;;;;;5016556;28;20198;-82
2021/10/05 02:37:18;;;;;;;0.50;0.40;;;11.50;99.90;;;;;;5015570;28;20205;-83
2021/10/05 02:39:44;;;;;;;0.50;0.40;;;11.50;99.90;;;;;;5015601;28;20218;-84
2021/10/05 02:42:11;;;;;;;0.50;0.40;;;11.50;99.90;;;;;;5016134;28;20213;-84
2021/10/05 02:44:39;;;;;;;0.50;0.40;;;11.50;99.90;;;;;;5015789;28;20198;-83
2021/10/05 02:47:08;;;;;;;0.50;0.40;;;11.50;99.90;;;;;;5017234;28;20253;-83
2021/10/05 02:49:36;;;;;;;0.50;0.40;;;11.50;99.90;;;;;;5017853;28;21018;-82
2021/10/05 02:52:03;;;;;;;0.60;0.50;;;11.50;99.90;;;;;;5016505;28;20194;-80
2021/10/05 02:54:30;;;;;;;0.55;0.47;;;11.50;99.90;;;;;;5015649;28;20194;-82
2021/10/05 02:56:57;;;;;;;0.50;0.40;;;11.50;99.90;;;;;;5014649;28;20203;-82
2021/10/05 02:59:24;;;;;;;0.50;0.40;;;11.50;99.90;;;;;;5012486;28;20220;-81
2021/10/05 03:01:51;;;;;;;0.50;0.40;;;11.60;99.90;;;;;;4995505;28;20211;-82
2021/10/05 03:04:19;;;;;;;0.50;0.40;;;11.60;99.90;;;;;;4998673;28;20222;-80
2021/10/05 03:06:45;;;;;;;0.50;0.40;;;11.60;99.90;;;;;;4999915;28;20202;-82
2021/10/05 03:09:12;;;;;;;0.50;0.40;;;11.60;99.90;;;;;;4999473;28;20220;-82
2021/10/05 03:11:39;;;;;;;0.50;0.40;;;11.60;99.90;;;;;;4999309;28;20425;-82
2021/10/05 03:14:06;;;;;;;0.50;0.40;;;11.60;99.90;;;;;;4999515;28;20199;-82
2021/10/05 03:16:32;;;;;;;0.50;0.40;;;11.60;99.90;;;;;;4998768;28;20211;-83
2021/10/05 03:18:59;;;;;;;0.50;0.40;;;11.60;99.90;;;;;;4998030;28;20215;-83
2021/10/05 03:21:27;;;;;;;0.50;0.40;;;11.60;99.90;;;;;;4998630;28;20537;-81
2021/10/05 03:23:54;;;;;;;0.50;0.40;;;11.50;99.90;;;;;;4998383;28;20194;-82
2021/10/05 03:26:21;;;;;;;0.50;0.40;;;11.50;99.90;;;;;;4998766;28;20689;-81
2021/10/05 03:28:47;;;;;;;0.50;0.40;;;11.60;99.90;;;;;;4998991;28;20202;-84
2021/10/05 03:31:15;;;;;;;0.50;0.40;;;11.60;99.90;;;;;;4998144;28;20218;-82
2021/10/05 03:33:43;;;;;;;0.50;0.40;;;11.50;99.90;;;;;;4998152;28;20227;-81
2021/10/05 03:36:12;;;;;;;0.50;0.40;;;11.50;99.90;;;;;;4999020;28;20193;-83
2021/10/05 03:38:41;;;;;;;0.50;0.40;;;11.50;99.90;;;;;;4998627;28;20224;-81
2021/10/05 03:41:09;;;;;;;0.50;0.40;;;11.40;99.90;;;;;;4997920;28;20242;-83
2021/10/05 03:43:36;;;;;;;0.50;0.40;;;11.40;99.90;;;;;;4998795;28;20199;-80
2021/10/05 03:46:03;;;;;;;0.50;0.40;;;11.40;99.90;;;;;;4998576;28;20195;-83
2021/10/05 03:48:31;;;;;;;0.50;0.40;;;11.40;99.90;;;;;;4998673;28;20668;-83
2021/10/05 03:50:58;;;;;;;0.50;0.40;;;11.40;99.90;;;;;;4998670;28;20261;-82
2021/10/05 03:53:25;;;;;;;0.50;0.40;;;11.40;99.90;;;;;;4999169;28;20204;-82
2021/10/05 03:55:55;;;;;;;0.50;0.40;;;11.40;99.90;;;;;;4998236;28;20213;-83
2021/10/05 03:58:24;;;;;;;0.50;0.40;;;11.30;99.90;;;;;;4998806;28;20573;-81
2021/10/05 04:00:52;;;;;;;0.50;0.40;;;11.30;99.90;;;;;;4998020;28;20233;-82
2021/10/05 04:03:19;;;;;;;0.50;0.40;;;11.30;99.90;;;;;;4999046;28;20199;-82
2021/10/05 04:05:47;;;;;;;0.50;0.50;;;11.30;99.90;;;;;;4998028;28;20249;-80
2021/10/05 04:08:14;;;;;;;0.50;0.40;;;11.30;99.90;;;;;;4998634;28;20203;-82
2021/10/05 04:10:41;;;;;;;0.50;0.40;;;11.40;99.90;;;;;;5003096;28;20234;-84
2021/10/05 04:13:09;;;;;;;0.50;0.40;;;11.40;99.90;;;;;;4999830;28;20209;-84
2021/10/05 04:15:36;;;;;;;0.50;0.40;;;11.40;99.90;;;;;;4997909;28;20199;-83
2021/10/05 04:18:03;;;;;;;0.50;0.40;;;11.40;99.90;;;;;;4998751;28;20716;-82
2021/10/05 04:20:29;;;;;;;0.50;0.40;;;11.40;99.90;;;;;;4999241;28;20223;-82
2021/10/05 04:22:56;;;;;;;0.50;0.40;;;11.40;99.90;;;;;;5000051;28;20202;-83
2021/10/05 04:25:23;;;;;;;0.50;0.40;;;11.50;99.90;;;;;;4999058;28;20647;-82
2021/10/05 04:27:50;;;;;;;0.50;0.40;;;11.40;99.90;;;;;;4999323;28;20583;-84
2021/10/05 04:30:18;;;;;;;1.00;0.98;;;11.50;99.90;;;;;;4998904;28;20223;-83
2021/10/05 04:32:45;;;;;;;0.50;0.40;;;11.50;99.90;;;;;;5000551;28;20206;-83
2021/10/05 04:35:12;;;;;;;0.57;0.57;;;11.40;99.90;;;;;;5000423;28;20207;-82
2021/10/05 04:37:38;;;;;;;0.50;0.40;;;11.50;99.90;;;;;;4999635;28;20210;-82
2021/10/05 04:40:07;;;;;;;0.50;0.38;;;11.40;99.90;;;;;;4998561;28;20226;-78
2021/10/05 04:42:35;;;;;;;0.50;0.40;;;11.50;99.90;;;;;;4998417;28;20206;-80
2021/10/05 04:45:01;;;;;;;0.50;0.40;;;11.40;99.90;;;;;;4999187;28;20207;-79
2021/10/05 04:47:30;;;;;;;0.50;0.47;;;11.40;99.90;;;;;;4999131;28;20204;-81
2021/10/05 04:49:56;;;;;;;0.50;0.40;;;11.40;99.90;;;;;;4999664;28;20280;-82
2021/10/05 04:52:23;;;;;;;0.50;0.40;;;11.40;99.90;;;;;;4998292;28;20246;-80
2021/10/05 04:54:50;;;;;;;0.50;0.40;;;11.40;99.90;;;;;;4999553;28;20253;-81
2021/10/05 04:57:16;;;;;;;0.50;0.40;;;11.30;99.90;;;;;;4998489;28;20209;-82
2021/10/05 04:59:43;;;;;;;0.50;0.40;;;11.30;99.90;;;;;;4997691;28;20226;-81
2021/10/05 05:02:10;;;;;;;0.50;0.40;;;11.20;99.90;;;;;;4996874;28;20715;-81
2021/10/05 05:04:38;;;;;;;0.50;0.40;;;11.20;99.90;;;;;;4998081;28;20561;-81
2021/10/05 05:07:05;;;;;;;0.50;0.40;;;11.20;99.90;;;;;;4998195;28;20200;-80
2021/10/05 05:09:31;;;;;;;0.50;0.40;;;11.20;99.90;;;;;;4998400;28;20720;-82
2021/10/05 05:11:58;;;;;;;0.50;0.40;;;11.20;99.90;;;;;;4998918;28;20230;-80
2021/10/05 05:14:25;;;;;;;0.50;0.40;;;11.10;99.90;;;;;;4998180;28;20210;-81
2021/10/05 05:16:52;;;;;;;0.50;0.40;;;11.10;99.90;;;;;;4998251;28;20205;-81
2021/10/05 05:19:18;;;;;;;0.50;0.40;;;11.10;99.90;;;;;;4998248;28;20288;-82
2021/10/05 05:21:46;;;;;;;0.50;0.40;;;11.00;99.90;;;;;;4998481;28;20194;-80
2021/10/05 05:24:13;;;;;;;0.50;0.40;;;11.00;99.90;;;;;;4997713;28;20202;-80
2021/10/05 05:26:40;;;;;;;0.50;0.40;;;11.00;99.90;;;;;;4997889;28;20700;-82
2021/10/05 05:29:07;;;;;;;0.50;0.40;;;11.00;99.90;;;;;;4998116;28;20199;-82
2021/10/05 05:31:33;;;;;;;0.50;0.40;;;11.00;99.90;;;;;;4998659;28;20201;-81
2021/10/05 05:34:01;;;;;;;0.50;0.40;;;11.00;99.90;;;;;;4999673;28;20207;-80
2021/10/05 05:36:27;;;;;;;0.50;0.40;;;11.10;99.90;;;;;;4999113;28;20195;-81
2021/10/05 05:38:55;;;;;;;0.50;0.40;;;11.00;99.90;;;;;;4998225;28;20211;-80
2021/10/05 05:41:22;;;;;;;0.50;0.40;;;11.10;99.90;;;;;;4998303;28;20209;-80
2021/10/05 05:43:49;;;;;;;0.50;0.40;;;11.10;99.90;;;;;;4999113;28;20201;-80
2021/10/05 05:46:15;;;;;;;0.60;0.60;;;11.10;99.90;;;;;;5003156;28;20209;-84
2021/10/05 05:48:42;;;;;;;0.50;0.40;;;11.10;99.90;;;;;;5003212;28;20301;-82
2021/10/05 05:51:09;;;;;;;0.50;0.40;;;11.10;99.90;;;;;;5004337;28;20227;-81
2021/10/05 05:53:36;;;;;;;0.50;0.40;;;11.10;99.90;;;;;;5004141;28;20234;-83
2021/10/05 05:56:05;;;;;;;0.50;0.40;;;11.10;99.90;;;;;;5001897;28;20212;-79
2021/10/05 05:58:31;;;;;;;0.50;0.40;;;11.20;99.90;;;;;;4998410;28;20649;-81
2021/10/05 06:00:58;;;;;;;0.50;0.40;;;11.20;99.90;;;;;;4996785;28;20761;-82
2021/10/05 06:03:25;;;;;;;0.50;0.40;;;11.20;99.90;;;;;;4997140;28;20253;-83
2021/10/05 06:05:51;;;;;;;0.50;0.40;;;11.20;99.90;;;;;;4996930;28;20218;-79
2021/10/05 06:08:18;;;;;;;0.50;0.40;;;11.20;99.90;;;;;;4996309;28;20203;-81
2021/10/05 06:10:45;;;;;;;0.50;0.40;;;11.20;99.90;;;;;;4996793;28;20226;-80
2021/10/05 06:13:13;;;;;;;0.50;0.40;;;11.20;99.90;;;;;;4996860;28;20199;-82
2021/10/05 06:15:40;;;;;;;0.50;0.40;;;11.20;99.90;;;;;;4997261;28;20191;-80
2021/10/05 06:18:07;;;;;;;0.50;0.40;;;11.30;99.90;;;;;;4996590;28;20257;-80
2021/10/05 06:20:33;;;;;;;0.50;0.40;;;11.30;99.90;;;;;;4997107;28;20234;-81
2021/10/05 06:23:00;;;;;;;0.50;0.40;;;11.30;99.90;;;;;;4997241;28;20203;-81
2021/10/05 06:25:32;;;;;;;0.50;0.40;;;11.40;99.90;;;;;;4997367;28;20222;-81
2021/10/05 06:28:00;;;;;;;0.50;0.40;;;11.40;99.90;;;;;;4996867;28;20199;-81
2021/10/05 06:30:29;;;;;;;0.50;0.40;;;11.40;99.90;;;;;;4998158;28;20215;-81
2021/10/05 06:32:56;;;;;;;0.50;0.40;;;11.50;99.90;;;;;;4997493;28;20205;-81
2021/10/05 06:35:25;;;;;;;0.50;0.40;;;11.60;99.90;;;;;;4997138;28;20195;-81
2021/10/05 06:37:54;;;;;;;0.50;0.40;;;11.70;99.90;;;;;;4998227;28;20211;-81
2021/10/05 06:40:21;;;;;;;0.50;0.40;;;11.70;99.90;;;;;;5001138;28;20610;-81
2021/10/05 06:42:48;;;;;;;0.50;0.40;;;11.80;99.90;;;;;;5001225;28;20202;-80
2021/10/05 06:45:15;;;;;;;0.50;0.40;;;11.80;99.90;;;;;;4995642;28;20203;-81
2021/10/05 06:47:43;;;;;;;0.50;0.40;;;11.90;99.90;;;;;;4999648;28;20228;-81
2021/10/05 06:50:11;;;;;;;0.50;0.40;;;11.80;99.90;;;;;;4999541;28;20696;-81
2021/10/05 06:52:38;;;;;;;0.50;0.40;;;11.90;99.90;;;;;;4999841;28;20436;-81
2021/10/05 06:55:06;;;;;;;0.50;0.40;;;11.90;99.90;;;;;;5024915;23;20220;-79
2021/10/05 06:57:32;;;;;;;0.50;0.40;;;11.90;99.90;;;;;;5044415;28;20197;-77
2021/10/05 06:59:59;;;;;;;0.50;0.40;;;12.00;99.90;;;;;;5053705;28;20218;-78
2021/10/05 07:02:26;;;;;;;0.50;0.40;;;12.00;99.90;;;;;;5054341;28;20198;-77
2021/10/05 07:04:54;;;;;;;0.50;0.40;;;12.10;99.90;;;;;;5054621;28;20708;-77
2021/10/05 07:07:21;;;;;;;0.50;0.40;;;12.20;99.90;;;;;;5053862;28;20229;-77
2021/10/05 07:09:47;;;;;;;0.50;0.40;;;12.30;99.90;;;;;;5054394;28;20193;-77
2021/10/05 07:12:14;;;;;;;0.50;0.40;;;12.50;99.90;;;;;;5054092;28;20202;-78
2021/10/05 07:14:41;;;;;;;0.50;0.40;;;12.60;99.90;;;;;;5054325;28;20461;-77
2021/10/05 07:17:07;;;;;;;0.50;0.40;;;12.80;99.90;;;;;;5054338;28;20205;-78
2021/10/05 07:19:34;;;;;;;0.50;0.40;;;13.00;99.90;;;;;;5054505;28;20496;-79
2021/10/05 07:22:02;;;;;;;0.50;0.40;;;13.10;99.90;;;;;;5053957;28;20997;-78
2021/10/05 07:24:29;;;;;;;0.50;0.50;;;13.30;99.90;;;;;;5054106;28;20981;-78
2021/10/05 07:26:55;;;;;;;0.50;0.40;;;13.40;99.90;;;;;;5054453;28;20792;-78
2021/10/05 07:29:22;;;;;;;0.50;0.40;;;13.50;99.90;;;;;;5054114;28;20448;-78
2021/10/05 07:31:49;;;;;;;0.50;0.40;;;13.70;99.90;;;;;;5053787;28;20504;-79
2021/10/05 07:34:16;;;;;;;0.50;0.40;;;13.80;99.90;;;;;;5054015;28;20437;-78
2021/10/05 07:36:42;;;;;;;0.50;0.40;;;13.90;99.90;;;;;;5054302;28;20463;-78
2021/10/05 07:39:10;;;;;;;0.50;0.40;;;13.90;99.90;;;;;;5054323;28;20445;-78
2021/10/05 07:41:37;;;;;;;0.50;0.40;;;13.90;99.90;;;;;;5053998;28;20433;-78
2021/10/05 07:44:04;;;;;;;0.50;0.40;;;13.90;99.90;;;;;;5054248;28;20457;-77
2021/10/05 07:46:31;;;;;;;0.50;0.40;;;14.00;99.90;;;;;;5054045;28;20461;-79
2021/10/05 07:48:58;;;;;;;0.50;0.40;;;14.20;99.90;;;;;;5053729;28;20834;-79
2021/10/05 07:51:25;;;;;;;0.70;0.50;;;14.60;99.90;;;;;;5053860;28;20441;-78
2021/10/05 07:53:52;;;;;;;0.50;0.50;;;15.10;99.90;;;;;;5053794;28;20545;-78
2021/10/05 07:56:20;;;;;;;0.50;0.33;;;15.60;99.90;;;;;;5053756;28;20816;-78
2021/10/05 07:58:47;;;;;;;0.73;0.43;;;15.70;99.90;;;;;;5054040;28;20800;-79
2021/10/05 08:01:13;;;;;;;0.60;0.40;;;16.10;99.90;;;;;;5053454;28;20558;-79
2021/10/05 08:03:40;;;;;;;6.23;1.93;;;17.40;99.90;;;;;;5053728;28;20446;-77
2021/10/05 08:06:07;;;;;;;0.50;0.40;;;19.00;99.90;;;;;;5053875;28;20517;-75
2021/10/05 08:08:34;;;;;;;0.50;0.40;;;20.10;99.90;;;;;;5052826;28;20516;-78
2021/10/05 08:11:00;;;;;;;0.50;0.30;;;21.10;99.90;;;;;;5053206;28;20444;-78
2021/10/05 08:13:29;;;;;;;0.83;0.40;;;22.00;99.90;;;;;;5054190;28;20514;-78
2021/10/05 08:15:56;;;;;;;0.50;0.30;;;22.70;99.90;;;;;;5053751;28;20462;-77
2021/10/05 08:18:23;;;;;;;0.50;0.40;;;22.50;99.50;;;;;;5053438;28;20444;-77
2021/10/05 08:20:51;;;;;;;0.50;0.40;;;22.60;99.90;;;;;;5053317;28;20476;-78
2021/10/05 08:23:18;;;;;;;0.50;0.33;;;24.10;95.20;;;;;;5053476;28;20969;-79
2021/10/05 08:25:45;;;;;;;0.50;0.30;;;24.30;94.40;;;;;;5054181;28;20453;-79
2021/10/05 08:28:12;;;;;;;0.50;0.37;;;24.60;90.50;;;;;;5054170;28;20450;-78
2021/10/05 08:30:41;;;;;;;0.50;0.33;;;25.00;86.50;;;;;;5053021;28;20447;-79
2021/10/05 08:33:07;;;;;;;0.50;0.40;;;24.50;85.20;;;;;;5053843;28;20441;-78
2021/10/05 08:35:35;;;;;;;0.50;0.30;;;23.00;87.20;;;;;;5052988;28;20462;-78
2021/10/05 08:38:04;;;;;;;0.50;0.30;;;20.80;97.30;;;;;;5053416;28;20445;-78
2021/10/05 08:40:32;;;;;;;0.50;0.40;;;20.70;99.90;;;;;;5053141;28;20487;-77
2021/10/05 08:43:00;;;;;;;0.70;0.40;;;21.30;99.90;;;;;;5053002;28;20474;-76
2021/10/05 08:45:27;;;;;;;0.50;0.40;;;22.10;99.90;;;;;;5052505;28;20469;-78
2021/10/05 08:47:55;;;;;;;0.50;0.30;;;22.50;99.90;;;;;;5052517;28;20439;-78
2021/10/05 08:50:22;;;;;;;0.50;0.37;;;23.50;95.00;;;;;;5051686;28;20496;-76
2021/10/05 08:52:49;;;;;;;0.50;0.40;;;23.60;92.30;;;;;;5052598;28;20443;-78
2021/10/05 08:55:16;;;;;;;0.50;0.30;;;24.10;90.30;;;;;;5052015;28;20984;-77
2021/10/05 08:57:42;;;;;;;0.50;0.40;;;24.60;87.70;;;;;;5052604;28;20443;-79
2021/10/05 09:00:10;;;;;;;1.07;0.90;;;25.10;85.10;;;;;;5051819;28;20534;-79
2021/10/05 09:02:51;;;;;;;0.50;0.40;;;26.20;78.90;;;;;;5052250;28;20878;-78
2021/10/05 09:05:20;;;;;;;0.50;0.40;;;26.30;78.10;;;;;;5052311;28;20557;-78
2021/10/05 09:07:48;;;;;;;0.50;0.40;;;26.60;74.70;;;;;;5051775;28;20696;-78
2021/10/05 09:10:17;;;;;;;0.50;0.30;;;26.20;74.60;;;;;;5051539;28;20807;-80
2021/10/05 09:12:44;;;;;;;0.50;0.30;;;25.60;76.30;;;;;;5052026;28;20448;-78
2021/10/05 09:15:13;;;;;;;0.50;0.30;;;24.80;78.20;;;;;;5052018;28;20910;-77
2021/10/05 09:17:41;;;;;;;1.37;1.27;;;24.40;82.00;;;;;;5052401;28;20467;-78
2021/10/05 09:20:21;;;;;;;0.50;0.30;;;23.80;80.20;;;;;;5051143;28;20479;-77
2021/10/05 09:23:02;;;;;;;0.50;0.30;;;23.00;83.90;;;;;;5052135;28;20442;-78
2021/10/05 09:25:32;;;;;;;0.50;0.30;;;23.60;87.10;;;;;;5051624;28;20472;-78
2021/10/05 09:28:01;;;;;;;0.50;0.30;;;24.20;85.20;;;;;;5051847;28;21033;-78
2021/10/05 09:30:28;;;;;;;0.50;0.30;;;24.20;82.90;;;;;;5051072;28;20439;-78
2021/10/05 09:32:59;;;;;;;0.50;0.30;;;23.30;83.70;;;;;;5051292;28;20442;-78
2021/10/05 09:35:28;;;;;;;0.70;0.70;;;23.10;85.00;;;;;;5051451;28;21014;-78
2021/10/05 09:37:55;;;;;;;0.50;0.30;;;23.00;86.60;;;;;;5051914;28;20472;-78
2021/10/05 09:40:22;;;;;;;0.50;0.30;;;22.50;87.40;;;;;;5051868;28;20509;-75
2021/10/05 09:42:52;;;;;;;0.50;0.30;;;22.30;90.30;;;;;;5052135;28;20488;-78
2021/10/05 09:45:24;;;;;;;0.50;0.30;;;22.60;90.10;;;;;;5051579;28;20982;-78
2021/10/05 09:47:52;;;;;;;0.50;0.30;;;22.00;90.90;;;;;;5051782;28;20438;-77
2021/10/05 09:50:24;;;;;;;0.70;0.50;;;22.30;93.70;;;;;;5051297;28;20439;-77
2021/10/05 09:52:54;;;;;;;0.50;0.30;;;23.00;89.00;;;;;;5051519;28;20551;-79
2021/10/05 09:55:22;;;;;;;0.50;0.30;;;22.90;88.50;;;;;;5051153;28;20472;-78
2021/10/05 09:57:49;;;;;;;0.50;0.40;;;23.00;89.10;;;;;;5051903;28;20441;-78
2021/10/05 10:00:18;;;;;;;0.50;0.40;;;22.10;87.50;;;;;;5051063;28;20478;-78
2021/10/05 10:02:45;;;;;;;0.50;0.40;;;21.80;90.90;;;;;;5051015;28;20734;-77
2021/10/05 10:05:13;;;;;;;0.70;0.70;;;21.50;93.50;;;;;;5051278;28;20474;-78
2021/10/05 10:07:43;;;;;;;0.50;0.30;;;22.30;93.20;;;;;;5050717;28;20439;-78
2021/10/05 10:10:13;;;;;;;0.50;0.37;;;22.50;90.40;;;;;;5050548;28;20441;-78
2021/10/05 10:12:42;;;;;;;0.50;0.30;;;22.30;88.20;;;;;;5051335;28;20485;-78
2021/10/05 10:15:11;;;;;;;0.50;0.30;;;23.10;88.30;;;;;;5051442;28;20865;-77
2021/10/05 10:17:38;;;;;;;0.50;0.30;;;22.60;87.80;;;;;;5051263;28;20442;-78
2021/10/05 10:20:07;;;;;;;0.50;0.40;;;21.60;90.90;;;;;;5050669;28;20438;-75
2021/10/05 10:22:43;;;;;;;0.50;0.30;;;22.10;91.80;;;;;;5051374;28;20957;-77
2021/10/05 10:25:23;;;;;;;0.50;0.30;;;23.10;90.50;;;;;;5051474;28;20488;-78
2021/10/05 10:27:52;;;;;;;0.50;0.33;;;24.40;90.20;;;;;;5051471;28;20446;-78
2021/10/05 10:30:19;;;;;;;0.50;0.40;;;25.30;79.20;;;;;;5051064;28;20433;-79
2021/10/05 10:32:50;;;;;;;0.50;0.33;;;25.50;76.60;;;;;;5051470;28;20520;-78
2021/10/05 10:35:17;;;;;;;0.50;0.40;;;24.60;76.70;;;;;;5051436;28;20495;-79
2021/10/05 10:37:45;;;;;;;0.60;0.40;;;23.70;79.20;;;;;;5051079;28;20445;-78
2021/10/05 10:40:14;;;;;;;0.70;0.50;;;23.40;81.90;;;;;;5050827;28;20441;-77
2021/10/05 10:42:43;;;;;;;0.60;0.50;;;23.60;84.40;;;;;;5051201;28;20441;-78
2021/10/05 10:45:17;;;;;;;0.50;0.37;;;23.40;82.60;;;;;;5050459;28;20470;-79
2021/10/05 10:47:46;;;;;;;0.50;0.30;;;23.40;82.80;;;;;;5051603;28;20441;-78
2021/10/05 10:50:15;;;;;;;0.50;0.30;;;24.30;82.60;;;;;;5050319;28;20548;-78
2021/10/05 10:52:43;;;;;;;0.53;0.47;;;25.40;82.10;;;;;;5050965;28;20433;-78
2021/10/05 10:55:12;;;;;;;0.50;0.40;;;25.10;78.70;;;;;;5050603;28;20479;-79
2021/10/05 10:57:42;;;;;;;0.50;0.30;;;25.70;75.40;;;;;;5051527;28;20439;-79
2021/10/05 11:00:15;;;;;;;0.50;0.30;;;26.00;75.80;;;;;;5049739;28;20984;-76
2021/10/05 11:02:42;;;;;;;0.50;0.40;;;24.00;75.50;;;;;;5050860;28;20456;-78
2021/10/05 11:05:09;;;;;;;0.50;0.40;;;23.30;83.40;;;;;;5050818;28;20533;-77
2021/10/05 11:07:36;;;;;;;0.80;0.80;;;22.70;82.30;;;;;;5050482;28;20931;-77
2021/10/05 11:10:04;;;;;;;0.50;0.30;;;22.70;83.30;;;;;;5050586;28;20464;-77
2021/10/05 11:12:30;;;;;;;1.37;1.27;;;22.90;86.00;;;;;;5050899;28;20449;-78
2021/10/05 11:14:59;;;;;;;0.50;0.40;;;23.10;82.40;;;;;;5050544;28;20461;-79
2021/10/05 11:17:32;;;;;;;0.50;0.33;;;23.10;83.90;;;;;;5051503;28;20456;-78
2021/10/05 11:20:05;;;;;;;0.50;0.30;;;23.60;81.20;;;;;;5051168;28;20484;-78
2021/10/05 11:22:32;;;;;;;1.17;0.37;;;24.00;80.20;;;;;;5050774;28;20839;-77
2021/10/05 11:24:58;;;;;;;0.50;0.30;;;24.60;79.90;;;;;;5052718;28;20456;-78
2021/10/05 11:27:26;;;;;;;0.90;0.90;;;24.80;81.40;;;;;;5054154;28;20959;-77
2021/10/05 11:30:02;;;;;;;0.50;0.30;;;25.10;81.80;;;;;;5053848;28;20443;-78
2021/10/05 11:32:30;;;;;;;0.50;0.30;;;25.60;77.60;;;;;;5053742;28;20928;-78
2021/10/05 11:34:57;;;;;;;0.50;0.30;;;25.50;75.70;;;;;;5054034;28;20459;-78
2021/10/05 11:37:25;;;;;;;0.50;0.30;;;25.50;74.30;;;;;;5054058;28;20939;-78
2021/10/05 11:39:55;;;;;;;0.90;0.40;;;25.50;74.10;;;;;;5053946;28;20502;-79
2021/10/05 11:42:23;;;;;;;0.60;0.40;;;25.80;72.90;;;;;;5053611;28;20837;-77
2021/10/05 11:44:51;;;;;;;0.50;0.30;;;25.30;73.00;;;;;;5053691;28;20467;-77
2021/10/05 11:47:21;;;;;;;0.50;0.30;;;24.70;74.80;;;;;;5053830;28;20439;-74
2021/10/05 11:49:50;;;;;;;0.50;0.40;;;23.50;77.90;;;;;;5054068;28;20435;-78
2021/10/05 11:52:19;;;;;;;0.50;0.40;;;23.80;78.90;;;;;;5053105;28;20485;-78
2021/10/05 11:54:46;;;;;;;0.50;0.40;;;24.40;79.20;;;;;;5053984;28;20482;-78
2021/10/05 11:57:16;;;;;;;0.50;0.40;;;25.10;76.90;;;;;;5053593;28;20426;-78
2021/10/05 11:59:44;;;;;;;0.50;0.40;;;25.00;76.50;;;;;;5053743;28;21009;-78
2021/10/05 12:02:13;;;;;;;0.50;0.40;;;24.30;77.10;;;;;;5053203;28;20999;-77
2021/10/05 12:04:43;;;;;;;0.50;0.30;;;24.40;77.80;;;;;;5053318;28;20460;-78
2021/10/05 12:07:11;;;;;;;0.50;0.40;;;24.20;77.30;;;;;;5052838;28;20495;-78
2021/10/05 12:09:40;;;;;;;0.70;0.40;;;24.50;77.50;;;;;;5053243;28;20446;-78
2021/10/05 12:12:09;;;;;;;0.50;0.30;;;24.50;77.40;;;;;;5053083;28;20436;-77
2021/10/05 12:14:39;;;;;;;0.50;0.30;;;25.00;76.20;;;;;;5053279;28;20989;-76
2021/10/05 12:17:12;;;;;;;0.50;0.30;;;24.70;74.90;;;;;;5053186;28;20440;-77
2021/10/05 12:19:43;;;;;;;0.50;0.30;;;24.80;76.10;;;;;;5053767;28;20425;-79
2021/10/05 12:22:11;;;;;;;0.50;0.33;;;25.00;75.40;;;;;;5052692;28;20482;-76
2021/10/05 12:24:45;;;;;;;0.50;0.30;;;23.80;76.10;;;;;;5053332;28;20459;-79
2021/10/05 12:27:17;;;;;;;0.60;0.47;;;22.80;78.70;;;;;;5053168;28;20449;-78
2021/10/05 12:29:50;;;;;;;1.10;0.60;;;21.80;82.90;;;;;;5053150;28;20461;-80
2021/10/05 12:32:16;;;;;;;0.50;0.40;;;21.00;88.40;;;;;;5052274;28;20972;-79
2021/10/05 12:34:50;;;;;;;0.50;0.40;;;20.50;95.20;;;;;;5053005;28;20533;-77
2021/10/05 12:37:19;;;;;;;0.50;0.40;;;20.20;99.90;;;;;;5052292;28;20501;-76
2021/10/05 12:39:59;;;;;;;0.50;0.40;;;20.30;99.90;;;;;;5052705;28;20479;-78
2021/10/05 12:42:41;;;;;;;0.83;0.83;;;20.20;99.90;;;;;;5052178;28;20889;-73
2021/10/05 12:45:18;;;;;;;0.50;0.30;;;20.20;99.90;;;;;;5052448;28;20468;-78
2021/10/05 12:48:02;;;;;;;0.50;0.40;;;20.60;99.90;;;;;;5052377;28;20426;-78
2021/10/05 12:50:33;;;;;;;0.50;0.40;;;21.40;99.90;;;;;;5052153;28;20500;-78